createdAt,value
2023-05-06T00:04:44.506Z,101003.66
2023-05-06T00:09:51.818Z,101007.41
2023-05-06T00:14:57.913Z,101007.91
2023-05-06T00:20:04.142Z,101020.16
2023-05-06T00:25:10.805Z,101012.03
2023-05-06T00:30:17.272Z,101008.81
2023-05-06T00:35:23.468Z,101012.41
2023-05-06T00:40:28.446Z,101005.69
2023-05-06T00:45:33.975Z,100998.53
2023-05-06T00:50:42.185Z,100991.56
2023-05-06T00:55:48.412Z,101002.72
2023-05-06T01:00:53.693Z,100999.03
2023-05-06T01:06:30.836Z,100983.59
2023-05-06T01:11:40.263Z,100980.97
2023-05-06T01:16:49.322Z,100982.19
2023-05-06T01:21:57.890Z,100983.66
2023-05-06T01:27:02.737Z,100990.47
2023-05-06T01:32:23.389Z,100993.97
2023-05-06T01:37:40.506Z,101000.78
2023-05-06T01:42:53.244Z,101007.56
2023-05-06T01:47:59.353Z,101001.59
2023-05-06T01:53:05.923Z,101000.56
2023-05-06T01:58:12.689Z,101008.63
2023-05-06T02:03:20.288Z,100996.84
2023-05-06T02:08:25.915Z,101002.81
2023-05-06T02:13:31.335Z,101011.91
2023-05-06T02:18:37.217Z,101013.97
2023-05-06T02:23:44.098Z,101021.59
2023-05-06T02:28:49.137Z,101014.59
2023-05-06T02:33:54.086Z,101013.94
2023-05-06T02:38:58.855Z,101015.13
2023-05-06T02:44:03.844Z,101014.44
2023-05-06T02:49:08.969Z,101010.44
2023-05-06T02:54:13.362Z,101014.50
2023-05-06T02:59:19.586Z,101001.88
2023-05-06T03:04:24.788Z,101003.25
2023-05-06T03:09:29.987Z,101002.78
2023-05-06T03:14:35.482Z,100991.78
2023-05-06T03:19:40.752Z,100985.72
2023-05-06T03:24:47.649Z,100985.47
2023-05-06T03:29:52.826Z,100995.13
2023-05-06T03:35:00.329Z,100997.13
2023-05-06T03:40:07.256Z,100995.59
2023-05-06T03:45:12.679Z,100999.44
2023-05-06T03:50:19.491Z,100983.97
2023-05-06T03:55:25.305Z,100978.91
2023-05-06T04:00:30.710Z,100962.00
2023-05-06T04:05:35.833Z,100956.91
2023-05-06T04:10:44.797Z,100946.59
2023-05-06T04:16:01.334Z,100943.72
2023-05-06T04:21:14.313Z,100916.63
2023-05-06T04:26:24.534Z,100937.50
2023-05-06T04:31:33.835Z,100901.44
2023-05-06T04:36:42.371Z,100927.84
2023-05-06T04:42:05.034Z,100895.38
2023-05-06T04:47:18.525Z,100888.38
2023-05-06T04:52:27.504Z,100884.50
2023-05-06T04:57:33.692Z,100872.56
2023-05-06T05:02:40.178Z,100880.66
2023-05-06T05:07:45.660Z,100868.09
2023-05-06T05:12:51.448Z,100869.03
2023-05-06T05:17:56.967Z,100852.38
2023-05-06T05:23:02.388Z,100847.91
2023-05-06T05:28:07.651Z,100843.06
2023-05-06T05:33:14.833Z,100835.31
2023-05-06T05:38:21.078Z,100842.00
2023-05-06T05:43:28.172Z,100831.44
2023-05-06T05:48:35.280Z,100841.66
2023-05-06T05:53:41.459Z,100820.56
2023-05-06T05:58:48.636Z,100817.75
2023-05-06T06:03:55.649Z,100806.97
2023-05-06T06:09:02.069Z,100807.34
2023-05-06T06:14:07.078Z,100793.75
2023-05-06T06:19:13.325Z,100795.84
2023-05-06T06:24:18.501Z,100787.66
2023-05-06T06:29:23.362Z,100783.19
2023-05-06T06:34:29.907Z,100772.75
2023-05-06T06:39:35.200Z,100773.56
2023-05-06T06:44:40.382Z,100766.41
2023-05-06T06:49:45.488Z,100757.97
2023-05-06T06:54:50.676Z,100773.81
2023-05-06T06:59:56.849Z,100762.78
2023-05-06T07:05:02.517Z,100745.69
2023-05-06T07:10:08.538Z,100756.94
2023-05-06T07:15:14.824Z,100747.00
2023-05-06T07:20:20.941Z,100753.66
2023-05-06T07:25:26.854Z,100742.28
2023-05-06T07:30:32.158Z,100737.13
2023-05-06T07:35:37.126Z,100728.94
2023-05-06T07:40:42.584Z,100720.97
2023-05-06T07:45:47.696Z,100722.13
2023-05-06T07:50:52.811Z,100722.00
2023-05-06T07:56:03.176Z,100714.63
2023-05-06T08:01:08.213Z,100716.13
2023-05-06T08:06:13.251Z,100723.63
2023-05-06T08:11:20.403Z,100717.28
2023-05-06T08:16:26.481Z,100744.91
2023-05-06T08:21:31.374Z,100723.22
2023-05-06T08:26:38.110Z,100727.44
2023-05-06T08:31:43.272Z,100722.28
2023-05-06T08:36:48.765Z,100722.75
2023-05-06T08:41:56.252Z,100723.19
2023-05-06T08:47:01.538Z,100716.19
2023-05-06T08:52:08.045Z,100720.97
2023-05-06T08:57:15.512Z,100726.59
2023-05-06T09:02:20.897Z,100714.03
2023-05-06T09:07:26.885Z,100714.97
2023-05-06T09:12:31.939Z,100716.47
2023-05-06T09:17:38.221Z,100708.03
2023-05-06T09:22:44.045Z,100716.81
2023-05-06T09:27:49.037Z,100713.31
2023-05-06T09:32:54.216Z,100709.69
2023-05-06T09:37:59.152Z,100707.44
2023-05-06T09:43:04.864Z,100700.16
2023-05-06T09:48:11.026Z,100716.44
2023-05-06T09:53:19.306Z,100694.09
2023-05-06T09:58:25.343Z,100693.00
2023-05-06T10:03:31.402Z,100695.19
2023-05-06T10:08:38.733Z,100716.94
2023-05-06T10:13:46.198Z,100692.56
2023-05-06T10:18:53.900Z,100691.69
2023-05-06T10:24:10.482Z,100693.56
2023-05-06T10:29:15.778Z,100700.41
2023-05-06T10:34:23.598Z,100704.63
2023-05-06T10:39:29.037Z,100695.38
2023-05-06T10:45:07.474Z,100702.47
2023-05-06T10:50:33.891Z,100713.28
2023-05-06T10:55:39.870Z,100715.44
2023-05-06T11:00:57.867Z,100708.00
2023-05-06T11:06:03.562Z,100715.31
2023-05-06T11:11:51.280Z,100724.47
2023-05-06T11:16:59.163Z,100724.75
2023-05-06T11:22:07.113Z,100727.47
2023-05-06T11:27:13.738Z,100728.00
2023-05-06T11:32:27.439Z,100724.97
2023-05-06T11:37:33.180Z,100727.09
2023-05-06T11:42:39.343Z,100724.66
2023-05-06T11:47:47.958Z,100737.31
2023-05-06T11:52:54.049Z,100734.25
2023-05-06T11:57:59.450Z,100742.56
2023-05-06T12:03:05.356Z,100749.84
2023-05-06T12:08:23.521Z,100739.97
2023-05-06T12:13:32.671Z,100749.09
2023-05-06T12:18:38.480Z,100763.34
2023-05-06T12:23:54.236Z,100761.94
2023-05-06T12:29:17.020Z,100768.38
2023-05-06T12:34:39.671Z,100778.28
2023-05-06T12:39:46.229Z,100784.88
2023-05-06T12:44:52.522Z,100778.91
2023-05-06T12:50:02.112Z,100785.09
2023-05-06T12:55:08.368Z,100791.91
2023-05-06T13:00:15.128Z,100794.81
2023-05-06T13:05:23.378Z,100799.34
2023-05-06T13:10:29.222Z,100793.38
2023-05-06T13:15:34.951Z,100797.47
2023-05-06T13:20:41.572Z,100809.84
2023-05-06T13:26:02.949Z,100807.38
2023-05-06T13:31:11.283Z,100814.59
2023-05-06T13:36:16.546Z,100837.19
2023-05-06T13:41:22.648Z,100824.66
2023-05-06T13:46:30.310Z,100832.66
2023-05-06T13:51:38.504Z,100845.03
2023-05-06T13:56:44.778Z,100846.03
2023-05-06T14:01:51.316Z,100835.50
2023-05-06T14:06:57.270Z,100853.00
2023-05-06T14:12:02.812Z,100881.16
2023-05-06T14:17:08.476Z,100854.19
2023-05-06T14:22:14.148Z,100857.28
2023-05-06T14:27:19.629Z,100862.00
2023-05-06T14:32:25.020Z,100894.88
2023-05-06T14:37:31.607Z,100882.09
2023-05-06T14:42:37.200Z,100876.97
2023-05-06T14:47:44.558Z,100881.69
2023-05-06T14:52:49.881Z,100887.44
2023-05-06T14:57:55.488Z,100881.66
2023-05-06T15:03:00.679Z,100889.66
2023-05-06T15:08:09.235Z,100885.69
2023-05-06T15:13:14.420Z,100892.66
2023-05-06T15:18:19.694Z,100906.59
2023-05-06T15:23:24.937Z,100899.53
2023-05-06T15:28:33.593Z,100893.75
2023-05-06T15:33:39.137Z,100912.59
2023-05-06T15:39:04.645Z,100910.44
2023-05-06T15:44:10.259Z,100916.91
2023-05-06T15:49:45.429Z,100913.97
2023-05-06T15:54:41.215Z,100918.63
2023-05-06T15:59:46.857Z,100928.41
2023-05-06T16:04:52.192Z,100930.66
2023-05-06T16:09:58.194Z,100941.66
2023-05-06T16:15:07.266Z,100934.31
2023-05-06T16:20:14.191Z,100925.81
2023-05-06T16:25:20.825Z,100929.22
2023-05-06T16:30:26.464Z,100931.72
2023-05-06T16:35:31.848Z,100938.53
2023-05-06T16:40:43.948Z,100944.97
2023-05-06T16:45:49.290Z,100954.91
2023-05-06T16:50:54.276Z,100950.31
2023-05-06T16:55:59.364Z,100952.06
2023-05-06T17:01:06.004Z,100947.47
2023-05-06T17:06:11.166Z,100957.84
2023-05-06T17:11:16.840Z,100944.50
2023-05-06T17:16:24.469Z,100970.72
2023-05-06T17:21:29.358Z,100945.63
2023-05-06T17:26:37.231Z,100950.84
2023-05-06T17:31:42.134Z,100948.34
2023-05-06T17:36:47.109Z,100943.19
2023-05-06T17:41:52.201Z,100943.66
2023-05-06T17:46:58.554Z,100950.66
2023-05-06T17:52:03.531Z,100957.84
2023-05-06T17:57:09.479Z,100950.84
2023-05-06T18:02:17.198Z,100957.84
2023-05-06T18:07:22.324Z,100972.06
2023-05-06T18:12:28.399Z,100972.38
2023-05-06T18:17:33.354Z,100970.81
2023-05-06T18:22:40.208Z,100976.47
2023-05-06T18:27:45.837Z,100967.56
2023-05-06T18:32:51.832Z,100977.09
2023-05-06T18:37:57.874Z,100998.59
2023-05-06T18:43:03.081Z,100995.31
2023-05-06T18:48:08.352Z,100987.28
2023-05-06T18:53:13.465Z,100991.47
2023-05-06T18:58:19.959Z,100990.50
2023-05-06T19:03:25.425Z,101008.19
2023-05-06T19:08:32.317Z,101005.22
2023-05-06T19:13:37.614Z,101016.91
2023-05-06T19:18:42.615Z,101003.81
2023-05-06T19:23:47.786Z,101032.56
2023-05-06T19:28:52.864Z,101012.00
2023-05-06T19:33:58.180Z,101009.16
2023-05-06T19:39:03.144Z,101013.16
2023-05-06T19:44:08.630Z,101043.41
2023-05-06T19:49:13.791Z,101039.25
2023-05-06T19:54:20.655Z,101041.75
2023-05-06T19:59:25.768Z,101051.56
2023-05-06T20:04:31.073Z,101050.56
2023-05-06T20:09:35.873Z,101044.75
2023-05-06T20:14:40.830Z,101071.47
2023-05-06T20:19:46.598Z,101054.38
2023-05-06T20:24:53.529Z,101056.22
2023-05-06T20:29:58.750Z,101061.69
2023-05-06T20:35:03.869Z,101064.50
2023-05-06T20:40:09.918Z,101056.88
2023-05-06T20:45:15.282Z,101076.16
2023-05-06T20:50:20.501Z,101057.88
2023-05-06T20:55:26.560Z,101064.34
2023-05-06T21:00:32.010Z,101070.66
2023-05-06T21:05:36.855Z,101094.34
2023-05-06T21:10:41.761Z,101087.72
2023-05-06T21:15:46.948Z,101100.13
2023-05-06T21:20:53.696Z,101100.44
2023-05-06T21:26:01.321Z,101127.59
2023-05-06T21:31:06.418Z,101107.53
2023-05-06T21:36:11.792Z,101104.38
2023-05-06T21:41:18.764Z,101116.78
2023-05-06T21:46:23.688Z,101129.09
2023-05-06T21:51:34.233Z,101135.53
2023-05-06T21:56:39.285Z,101139.84
2023-05-06T22:01:44.201Z,101138.03
2023-05-06T22:06:49.090Z,101170.06
2023-05-06T22:11:54.865Z,101164.16
2023-05-06T22:16:59.734Z,101168.97
2023-05-06T22:22:05.557Z,101166.66
2023-05-06T22:27:12.169Z,101175.03
2023-05-06T22:32:17.130Z,101176.03
2023-05-06T22:37:22.270Z,101177.25
2023-05-06T22:42:27.524Z,101203.69
2023-05-06T22:47:32.708Z,101193.06
2023-05-06T22:52:38.176Z,101196.09
2023-05-06T22:57:43.019Z,101208.09
2023-05-06T23:02:48.025Z,101215.72
2023-05-06T23:07:54.201Z,101218.53
2023-05-06T23:13:05.180Z,101222.97
2023-05-06T23:18:10.255Z,101239.25
2023-05-06T23:23:16.468Z,101237.53
2023-05-06T23:28:22.547Z,101235.72
2023-05-06T23:33:28.088Z,101235.75
2023-05-06T23:38:33.191Z,101244.47
2023-05-06T23:43:38.070Z,101257.66
2023-05-06T23:48:42.991Z,101255.59
2023-05-06T23:53:47.966Z,101265.22
2023-05-06T23:58:53.020Z,101277.47
